Time;durP1;ratioP1;P1;durP2;ratioP2;P2;SDS_P1;SDS_P2;PMS_P1;PMS_P2;Temp;Humidity;BMP_temperature;BMP_pressure;BME280_temperature;BME280_humidity;BME280_pressure;Samples;Min_cycle;Max_cycle;Signal;HPM_P1;HPM_P2
2022/10/02 00:01:19;448461.00;1.49;773.14;0.00;0.00;0.62;;;;;17.20;1.00;;;;;;2280852;61;1076;-86
2022/10/02 00:03:46;835302.00;2.78;1442.76;55584.00;0.19;96.84;;;;;17.20;1.00;;;;;;2280763;61;1923;-85
2022/10/02 00:06:21;658807.00;2.20;1135.88;0.00;0.00;0.62;;;;;17.40;1.00;;;;;;2280559;61;1151;-86
2022/10/02 00:08:55;466053.00;1.55;803.40;0.00;0.00;0.62;;;;;17.60;1.00;;;;;;2280878;61;1072;-85
2022/10/02 00:11:32;748313.00;2.49;1291.12;41229.00;0.14;72.01;;;;;17.30;1.00;;;;;;2280812;61;1132;-86
2022/10/02 00:14:04;741729.00;2.47;1279.68;0.00;0.00;0.62;;;;;17.20;1.30;;;;;;2280811;61;1459;-85
2022/10/02 00:16:36;607314.00;2.02;1046.85;38747.00;0.13;67.72;;;;;17.30;1.00;;;;;;2280869;61;1118;-88
2022/10/02 00:19:04;681585.00;2.27;1175.32;35119.00;0.12;61.44;;;;;17.40;1.00;;;;;;2280637;61;1064;-86
2022/10/02 00:21:51;776795.00;2.59;1340.68;0.00;0.00;0.62;;;;;17.50;1.00;;;;;;2280812;61;923;-86
2022/10/02 00:24:24;559144.00;1.86;963.72;0.00;0.00;0.62;;;;;17.70;1.00;;;;;;2280784;61;1915;-86
2022/10/02 00:27:01;1064069.00;3.55;1846.28;49552.00;0.17;86.41;;;;;17.90;1.00;;;;;;2280820;61;1098;-87
2022/10/02 00:29:43;692894.00;2.31;1194.92;0.00;0.00;0.62;;;;;18.00;1.00;;;;;;2280752;61;1030;-87
2022/10/02 00:32:22;955055.00;3.18;1653.03;7439.00;0.02;13.51;;;;;17.90;1.00;;;;;;2280803;61;921;-86
2022/10/02 00:35:19;812049.00;2.71;1402.15;40072.00;0.13;70.01;;;;;18.00;1.00;;;;;;2280843;61;1086;-85
2022/10/02 00:37:57;761419.00;2.54;1313.92;48856.00;0.16;85.21;;;;;18.10;1.00;;;;;;2280729;61;1058;-86
2022/10/02 00:40:40;910722.00;3.04;1574.96;61569.00;0.21;107.19;;;;;18.20;1.00;;;;;;2280789;61;930;-85
2022/10/02 00:43:23;681840.00;2.27;1175.76;0.00;0.00;0.62;;;;;17.90;1.00;;;;;;2280598;61;2025;-86
2022/10/02 00:46:23;994379.00;3.31;1722.52;79880.00;0.27;138.83;;;;;17.90;1.00;;;;;;2280668;61;1636;-86
2022/10/02 00:49:12;411798.00;1.37;710.09;0.00;0.00;0.62;;;;;17.80;1.00;;;;;;2280727;61;1076;-86
2022/10/02 00:51:56;574027.00;1.91;989.39;0.00;0.00;0.62;;;;;17.80;1.00;;;;;;2280714;61;966;-86
2022/10/02 00:54:47;643378.00;2.14;1109.18;0.00;0.00;0.62;;;;;17.90;1.00;;;;;;2280665;61;1398;-85
2022/10/02 00:57:28;523620.00;1.75;902.50;0.00;0.00;0.62;;;;;17.90;1.00;;;;;;2280637;61;1098;-87
2022/10/02 01:00:04;883282.00;2.94;1526.78;62219.00;0.21;108.31;;;;;17.90;1.00;;;;;;2280676;61;1121;-86
2022/10/02 01:02:46;670244.00;2.23;1155.68;1705.00;0.01;3.58;;;;;17.80;1.00;;;;;;2280532;61;1419;-86
2022/10/02 01:05:14;595507.00;1.99;1026.46;0.00;0.00;0.62;;;;;17.70;1.00;;;;;;2280637;61;1054;-84
2022/10/02 01:07:43;726545.00;2.42;1253.30;0.00;0.00;0.62;;;;;17.70;1.00;;;;;;2280641;61;1125;-85
2022/10/02 01:10:13;999553.00;3.33;1731.68;56806.00;0.19;98.95;;;;;17.50;1.00;;;;;;2280521;61;1491;-87
2022/10/02 01:12:43;777577.00;2.59;1342.05;0.00;0.00;0.62;;;;;17.50;1.00;;;;;;2280634;61;1276;-86
2022/10/02 01:15:13;634996.00;2.12;1094.69;62060.00;0.21;108.04;;;;;17.40;1.00;;;;;;2280600;61;1551;-88
2022/10/02 01:17:42;506808.00;1.69;873.55;0.00;0.00;0.62;;;;;17.00;1.00;;;;;;2280635;61;903;-85
2022/10/02 01:20:17;776916.00;2.59;1340.89;0.00;0.00;0.62;;;;;16.90;1.00;;;;;;2280650;61;1081;-86
2022/10/02 01:22:52;545112.00;1.82;939.53;0.00;0.00;0.62;;;;;16.70;1.00;;;;;;2280607;61;1328;-86
2022/10/02 01:25:22;662717.00;2.21;1142.64;0.00;0.00;0.62;;;;;16.60;1.00;;;;;;2280633;61;916;-86
2022/10/02 01:27:52;900527.00;3.00;1557.05;79419.00;0.26;138.03;;;;;16.50;1.00;;;;;;2280498;61;1627;-86
2022/10/02 01:30:20;374342.00;1.25;645.70;0.00;0.00;0.62;;;;;16.50;1.00;;;;;;2280347;61;1575;-86
2022/10/02 01:32:51;682694.00;2.28;1177.24;0.00;0.00;0.62;;;;;16.40;1.00;;;;;;2280546;61;1472;-86
2022/10/02 01:35:21;800338.00;2.67;1381.71;56029.00;0.19;97.61;;;;;16.30;1.30;;;;;;2280593;61;1049;-86
2022/10/02 01:37:51;559671.00;1.87;964.63;0.00;0.00;0.62;;;;;16.40;1.00;;;;;;2280594;61;1014;-85
2022/10/02 01:40:29;628662.00;2.10;1083.74;0.00;0.00;0.62;;;;;16.60;1.00;;;;;;2280485;61;977;-87
2022/10/02 01:43:00;748882.00;2.50;1292.11;0.00;0.00;0.62;;;;;16.80;1.00;;;;;;2280473;61;2010;-87
2022/10/02 01:45:42;694004.00;2.31;1196.84;49894.00;0.17;87.00;;;;;16.80;1.00;;;;;;2280563;61;1013;-86
2022/10/02 01:48:19;681699.00;2.27;1175.52;0.00;0.00;0.62;;;;;16.90;1.00;;;;;;2280504;61;988;-86
2022/10/02 01:50:59;589876.00;1.97;1016.74;0.00;0.00;0.62;;;;;17.00;1.00;;;;;;2280475;61;1053;-86
2022/10/02 01:53:35;625084.00;2.08;1077.55;0.00;0.00;0.62;;;;;17.10;1.00;;;;;;2280311;61;1360;-86
2022/10/02 01:56:14;728160.00;2.43;1256.11;0.00;0.00;0.62;;;;;17.20;1.00;;;;;;2280472;61;1136;-86
2022/10/02 01:58:51;563516.00;1.88;971.26;0.00;0.00;0.62;;;;;17.00;1.00;;;;;;2280544;61;938;-87
2022/10/02 02:01:30;528199.00;1.76;910.39;0.00;0.00;0.62;;;;;17.10;1.00;;;;;;2280497;61;1020;-87
2022/10/02 02:04:03;631091.00;2.10;1087.94;0.00;0.00;0.62;;;;;17.00;1.00;;;;;;2280413;61;1912;-87
2022/10/02 02:06:39;406833.00;1.36;701.55;0.00;0.00;0.62;;;;;16.60;1.00;;;;;;2280492;61;1137;-87
2022/10/02 02:09:12;301647.00;1.01;520.75;0.00;0.00;0.62;;;;;16.50;1.00;;;;;;2280367;61;1569;-88
2022/10/02 02:11:49;606897.00;2.02;1046.13;0.00;0.00;0.62;;;;;16.30;1.00;;;;;;2280402;61;1580;-88
2022/10/02 02:14:22;844920.00;2.82;1459.58;0.00;0.00;0.62;;;;;16.40;1.20;;;;;;2280376;61;1673;-87
2022/10/02 02:16:56;588398.00;1.96;1014.19;0.00;0.00;0.62;;;;;16.30;1.00;;;;;;2280459;61;936;-87
2022/10/02 02:19:27;793277.00;2.64;1369.40;48354.00;0.16;84.34;;;;;16.30;1.00;;;;;;2280446;61;1639;-88
2022/10/02 02:22:01;610884.00;2.04;1053.02;0.00;0.00;0.62;;;;;16.40;1.00;;;;;;2280361;61;2449;-86
2022/10/02 02:24:36;632021.00;2.11;1089.54;0.00;0.00;0.62;;;;;16.30;1.00;;;;;;2280497;61;2008;-86
2022/10/02 02:27:05;561028.00;1.87;966.97;0.00;0.00;0.62;;;;;16.30;1.00;;;;;;2280424;61;1001;-88
2022/10/02 02:29:37;772574.00;2.58;1333.33;23431.00;0.08;41.21;;;;;16.40;1.00;;;;;;2280460;61;1429;-87
2022/10/02 02:32:10;1596126.00;5.32;2825.34;303364.00;1.01;523.70;;;;;16.60;1.00;;;;;;2280395;61;1680;-88
2022/10/02 02:34:45;777245.00;2.59;1341.47;70430.00;0.23;122.50;;;;;16.70;1.00;;;;;;2280351;61;1644;-87
2022/10/02 02:37:17;494224.00;1.65;851.88;0.00;0.00;0.62;;;;;16.70;1.00;;;;;;2280424;61;975;-87
2022/10/02 02:39:51;576064.00;1.92;992.91;0.00;0.00;0.62;;;;;16.80;1.00;;;;;;2280349;61;1296;-87
2022/10/02 02:42:23;881751.00;2.94;1524.09;33434.00;0.11;58.53;;;;;17.00;1.00;;;;;;2280325;61;1010;-88
2022/10/02 02:44:56;658109.00;2.19;1134.67;7071.00;0.02;12.87;;;;;17.20;1.00;;;;;;2280250;61;2008;-86
2022/10/02 02:47:32;518936.00;1.73;894.43;0.00;0.00;0.62;;;;;17.20;1.00;;;;;;2280269;61;1106;-85
2022/10/02 02:50:05;578856.00;1.93;997.72;0.00;0.00;0.62;;;;;17.30;1.00;;;;;;2280358;61;1030;-86
2022/10/02 02:52:39;662807.00;2.21;1142.80;0.00;0.00;0.62;;;;;17.60;1.00;;;;;;2280269;61;1475;-87
2022/10/02 02:55:11;721616.00;2.41;1244.74;0.00;0.00;0.62;;;;;17.70;1.00;;;;;;2280098;61;1682;-86
2022/10/02 02:57:49;485355.00;1.62;836.61;0.00;0.00;0.62;;;;;17.80;1.00;;;;;;2280285;61;1534;-88
2022/10/02 03:00:18;488596.00;1.63;842.19;0.00;0.00;0.62;;;;;18.00;1.00;;;;;;2280340;61;1682;-87
2022/10/02 03:02:45;444651.00;1.48;766.58;0.00;0.00;0.62;;;;;18.20;1.00;;;;;;2280289;61;1302;-87
2022/10/02 03:05:16;492143.00;1.64;848.30;0.00;0.00;0.62;;;;;18.20;1.00;;;;;;2280269;61;1930;-86
2022/10/02 03:07:50;710784.00;2.37;1225.94;65071.00;0.22;113.24;;;;;17.90;1.00;;;;;;2280288;61;1573;-87
2022/10/02 03:10:23;721212.00;2.40;1244.04;39481.00;0.13;68.99;;;;;17.60;1.00;;;;;;2280380;61;1114;-87
2022/10/02 03:13:05;419635.00;1.40;723.56;0.00;0.00;0.62;;;;;17.30;1.00;;;;;;2280304;61;1490;-87
2022/10/02 03:15:46;578174.00;1.93;996.55;0.00;0.00;0.62;;;;;17.40;1.00;;;;;;2280253;61;1502;-87
2022/10/02 03:18:41;536872.00;1.79;925.33;0.00;0.00;0.62;;;;;17.60;1.00;;;;;;2280317;61;1039;-86
2022/10/02 03:21:15;814162.00;2.71;1405.83;50696.00;0.17;88.39;;;;;17.70;1.00;;;;;;2280323;61;1093;-85
2022/10/02 03:23:56;812450.00;2.71;1402.85;0.00;0.00;0.62;;;;;17.70;1.00;;;;;;2280144;61;2006;-86
2022/10/02 03:26:36;766255.00;2.55;1322.33;43001.00;0.14;75.08;;;;;17.60;1.00;;;;;;2280180;61;962;-85
2022/10/02 03:29:13;787938.00;2.63;1360.10;79673.00;0.27;138.47;;;;;17.40;1.00;;;;;;2280133;61;1636;-86
2022/10/02 03:31:41;697087.00;2.32;1202.19;17606.00;0.06;31.12;;;;;17.20;1.00;;;;;;2280320;61;1074;-87
2022/10/02 03:34:08;758912.00;2.53;1309.56;0.00;0.00;0.62;;;;;17.20;1.00;;;;;;2280215;61;1623;-87
2022/10/02 03:36:37;671651.00;2.24;1158.11;0.00;0.00;0.62;;;;;17.20;1.00;;;;;;2280292;61;1064;-88
2022/10/02 03:39:06;650491.00;2.17;1121.49;0.00;0.00;0.62;;;;;17.40;1.00;;;;;;2280224;61;1610;-87
2022/10/02 03:41:33;544836.00;1.82;939.06;0.00;0.00;0.62;;;;;17.50;1.00;;;;;;2280246;61;1009;-87
2022/10/02 03:44:07;575361.00;1.92;991.69;0.00;0.00;0.62;;;;;17.50;1.00;;;;;;2280241;61;1990;-88
2022/10/02 03:46:35;657490.00;2.19;1133.60;45712.00;0.15;79.77;;;;;17.50;1.00;;;;;;2278897;61;1760;-87
2022/10/02 03:49:02;502659.00;1.68;866.40;0.00;0.00;0.62;;;;;17.60;1.00;;;;;;2280165;61;2279;-86
2022/10/02 03:51:29;577302.00;1.92;995.04;0.00;0.00;0.62;;;;;17.50;1.00;;;;;;2280195;61;952;-86
2022/10/02 03:53:56;642872.00;2.14;1108.31;0.00;0.00;0.62;;;;;17.70;1.00;;;;;;2280428;61;1453;-86
2022/10/02 03:56:35;600119.00;2.00;1034.43;0.00;0.00;0.62;;;;;17.90;1.00;;;;;;2280840;61;1505;-86
2022/10/02 03:59:11;566237.00;1.89;975.96;0.00;0.00;0.62;;;;;18.00;1.00;;;;;;2280951;61;944;-86
2022/10/02 04:01:46;669170.00;2.23;1153.82;26457.00;0.09;46.45;;;;;18.00;1.00;;;;;;2280960;61;1031;-85
2022/10/02 04:04:18;987514.00;3.29;1710.37;98413.00;0.33;170.83;;;;;17.80;1.00;;;;;;2280783;61;2008;-87
2022/10/02 04:06:48;550306.00;1.83;948.49;0.00;0.00;0.62;;;;;17.90;1.00;;;;;;2280925;61;1025;-87
2022/10/02 04:09:22;544223.00;1.81;938.00;0.00;0.00;0.62;;;;;18.00;1.00;;;;;;2280928;61;996;-89
2022/10/02 04:11:57;506691.00;1.69;873.34;0.00;0.00;0.62;;;;;18.00;1.00;;;;;;2280796;61;1755;-87
2022/10/02 04:14:32;819359.00;2.73;1414.91;0.00;0.00;0.62;;;;;18.10;1.00;;;;;;2280712;61;1751;-86
2022/10/02 04:17:06;700850.00;2.34;1208.71;0.00;0.00;0.62;;;;;18.00;1.00;;;;;;2280797;61;1644;-86
2022/10/02 04:19:39;545151.00;1.82;939.60;0.00;0.00;0.62;;;;;18.00;1.00;;;;;;2280888;61;1098;-87
2022/10/02 04:22:12;579851.00;1.93;999.44;0.00;0.00;0.62;;;;;17.80;1.00;;;;;;2280797;61;1023;-88
2022/10/02 04:24:47;632815.00;2.11;1090.92;0.00;0.00;0.62;;;;;17.70;1.00;;;;;;2280738;61;1923;-89
2022/10/02 04:27:20;742982.00;2.48;1281.86;49436.00;0.16;86.21;;;;;17.80;1.00;;;;;;2280804;61;1668;-87
2022/10/02 04:29:52;832990.00;2.78;1438.72;0.00;0.00;0.62;;;;;17.80;1.00;;;;;;2280878;61;1106;-87
2022/10/02 04:32:25;624701.00;2.08;1076.89;0.00;0.00;0.62;;;;;17.60;1.00;;;;;;2280772;61;1129;-88
2022/10/02 04:34:53;657150.00;2.19;1133.01;0.00;0.00;0.62;;;;;17.80;1.00;;;;;;2280732;61;1750;-88
2022/10/02 04:37:47;509656.00;1.70;878.45;0.00;0.00;0.62;;;;;17.90;1.00;;;;;;2280715;61;1544;-86
2022/10/02 04:40:39;888208.00;2.96;1535.42;73653.00;0.25;128.07;;;;;18.00;1.00;;;;;;2280777;61;1607;-87
2022/10/02 04:43:22;625805.00;2.09;1078.80;66876.00;0.22;116.36;;;;;18.00;1.00;;;;;;2280818;61;1367;-87
2022/10/02 04:46:03;718206.00;2.39;1238.82;61147.00;0.20;106.46;;;;;18.20;1.00;;;;;;2280736;61;2009;-87
2022/10/02 04:49:00;891916.00;2.97;1541.93;60462.00;0.20;105.28;;;;;18.20;1.00;;;;;;2280778;61;1183;-88
2022/10/02 04:51:42;928367.00;3.09;1606.00;92948.00;0.31;161.40;;;;;18.10;1.00;;;;;;2279252;61;1442;-88
2022/10/02 04:54:29;709365.00;2.36;1223.48;51774.00;0.17;90.25;;;;;18.20;1.00;;;;;;2280670;61;1388;-86
2022/10/02 04:57:09;916134.00;3.05;1584.47;97516.00;0.33;169.28;;;;;18.40;1.00;;;;;;2280821;61;915;-85
2022/10/02 04:59:54;1132524.00;3.78;1968.69;67892.00;0.23;118.12;;;;;18.40;1.00;;;;;;2280608;61;1030;-86
2022/10/02 05:02:38;978941.00;3.26;1695.21;63505.00;0.21;110.54;;;;;18.30;1.00;;;;;;2280640;61;1051;-87
2022/10/02 05:05:22;817664.00;2.73;1411.95;67099.00;0.22;116.75;;;;;18.30;1.00;;;;;;2280478;61;1980;-86
2022/10/02 05:08:24;649413.00;2.16;1119.62;67095.00;0.22;116.74;;;;;18.30;1.00;;;;;;2280664;61;1629;-86
2022/10/02 05:11:07;898208.00;2.99;1552.97;9319.00;0.03;16.77;;;;;18.20;1.00;;;;;;2280199;61;1475;-86
2022/10/02 05:13:51;578211.00;1.93;996.61;0.00;0.00;0.62;;;;;18.30;1.00;;;;;;2280623;61;1369;-88
2022/10/02 05:16:40;807528.00;2.69;1394.26;71151.00;0.24;123.75;;;;;18.20;1.00;;;;;;2280630;61;1030;-87
2022/10/02 05:19:35;831104.00;2.77;1435.42;66696.00;0.22;116.05;;;;;18.30;1.00;;;;;;2280617;61;1332;-87
2022/10/02 05:22:23;929165.00;3.10;1607.40;106441.00;0.35;184.69;;;;;18.40;1.00;;;;;;2280501;61;1585;-85
2022/10/02 05:25:12;745860.00;2.49;1286.86;63226.00;0.21;110.05;;;;;18.40;1.00;;;;;;2280633;61;1915;-86
2022/10/02 05:28:00;1029899.00;3.43;1785.50;51390.00;0.17;89.59;;;;;18.40;1.00;;;;;;2280570;61;1500;-86
2022/10/02 05:30:35;802690.00;2.68;1385.82;88413.00;0.29;153.57;;;;;18.40;1.00;;;;;;2280592;61;960;-88
2022/10/02 05:33:37;888700.00;2.96;1536.28;77193.00;0.26;134.19;;;;;18.50;1.00;;;;;;2280660;61;1433;-86
2022/10/02 05:36:28;690128.00;2.30;1190.12;66487.00;0.22;115.69;;;;;18.60;1.00;;;;;;2278422;61;1276;-87
2022/10/02 05:39:07;747058.00;2.49;1288.94;9428.00;0.03;16.96;;;;;18.70;1.00;;;;;;2280583;61;948;-87
2022/10/02 05:41:48;602113.00;2.01;1037.87;0.00;0.00;0.62;;;;;18.70;1.00;;;;;;2280601;61;1015;-87
2022/10/02 05:44:18;766686.00;2.56;1323.08;0.00;0.00;0.62;;;;;18.80;1.00;;;;;;2280545;61;2021;-86
2022/10/02 05:46:52;442444.00;1.47;762.79;0.00;0.00;0.62;;;;;18.80;1.00;;;;;;2280502;61;1094;-87
2022/10/02 05:49:25;605205.00;2.02;1043.21;0.00;0.00;0.62;;;;;18.90;1.00;;;;;;2280568;61;1565;-86
2022/10/02 05:51:58;689135.00;2.30;1188.40;0.00;0.00;0.62;;;;;19.10;1.00;;;;;;2280549;61;1551;-86
2022/10/02 05:54:41;1017752.00;3.39;1763.94;90765.00;0.30;157.63;;;;;19.10;1.00;;;;;;2280400;61;1474;-86
2022/10/02 05:57:19;725679.00;2.42;1251.80;0.00;0.00;0.62;;;;;19.00;1.00;;;;;;2280543;61;1640;-86
2022/10/02 05:59:59;637433.00;2.12;1098.90;0.00;0.00;0.62;;;;;18.90;1.00;;;;;;2280592;61;900;-85
2022/10/02 06:02:36;695091.00;2.32;1198.73;0.00;0.00;0.62;;;;;18.90;1.00;;;;;;2280437;61;1560;-87
2022/10/02 06:05:13;419822.00;1.40;723.88;0.00;0.00;0.62;;;;;19.10;1.00;;;;;;2280385;61;2009;-88
2022/10/02 06:07:44;535721.00;1.79;923.35;0.00;0.00;0.62;;;;;19.10;1.00;;;;;;2280375;61;2324;-86
2022/10/02 06:10:17;468824.00;1.56;808.17;0.00;0.00;0.62;;;;;19.10;1.00;;;;;;2280460;61;993;-87
2022/10/02 06:12:53;469949.00;1.57;810.10;0.00;0.00;0.62;;;;;19.00;1.00;;;;;;2280389;61;1365;-88
2022/10/02 06:15:25;584625.00;1.95;1007.68;0.00;0.00;0.62;;;;;18.90;1.00;;;;;;2280466;61;1717;-88
2022/10/02 06:17:57;567659.00;1.89;978.41;0.00;0.00;0.62;;;;;18.90;1.00;;;;;;2280425;61;1129;-91
2022/10/02 06:20:30;484323.00;1.61;834.84;41987.00;0.14;73.33;;;;;18.90;1.00;;;;;;2280467;61;1715;-89
2022/10/02 06:23:05;477202.00;1.59;822.58;0.00;0.00;0.62;;;;;18.90;1.00;;;;;;2280405;61;1632;-88
2022/10/02 06:25:39;125362256.00;417.87;79819312.00;0.00;0.00;0.62;;;;;19.00;1.00;;;;;;2280462;61;1980;-88
2022/10/02 06:28:14;618808.00;2.06;1066.71;0.00;0.00;0.62;;;;;19.00;1.00;;;;;;2280203;61;1641;-87
2022/10/02 06:30:47;564500.00;1.88;972.96;0.00;0.00;0.62;;;;;19.20;1.00;;;;;;2280350;61;945;-88
2022/10/02 06:33:20;582125.00;1.94;1003.37;0.00;0.00;0.62;;;;;19.10;1.00;;;;;;2280396;61;1265;-89
2022/10/02 06:36:17;124280272.00;414.27;77768456.00;0.00;0.00;0.62;;;;;19.10;1.00;;;;;;2280432;61;1047;-88
2022/10/02 06:39:06;552276.00;1.84;951.88;0.00;0.00;0.62;;;;;19.20;1.00;;;;;;2280017;61;990;-86
2022/10/02 06:41:47;322265.00;1.07;556.19;0.00;0.00;0.62;;;;;19.30;1.00;;;;;;2280460;61;999;-88
2022/10/02 06:44:25;492691.00;1.64;849.24;0.00;0.00;0.62;;;;;19.20;1.00;;;;;;2280254;61;1400;-85
2022/10/02 06:47:05;580520.00;1.94;1000.60;0.00;0.00;0.62;;;;;19.30;1.00;;;;;;2280429;61;1927;-87
2022/10/02 06:49:51;953418.00;3.18;1650.14;0.00;0.00;0.62;;;;;19.30;1.00;;;;;;2280411;61;1015;-87
2022/10/02 06:52:29;345597.00;1.15;596.29;0.00;0.00;0.62;;;;;19.30;1.00;;;;;;2280297;61;1140;-87
2022/10/02 06:55:16;534061.00;1.78;920.49;68160.00;0.23;118.58;;;;;19.30;1.00;;;;;;2280284;61;1493;-87
2022/10/02 06:58:08;539085.00;1.80;929.15;0.00;0.00;0.62;;;;;19.40;1.00;;;;;;2280343;61;1000;-88
2022/10/02 07:00:46;744277.00;2.48;1284.11;73000.00;0.24;126.94;;;;;19.60;1.00;;;;;;2280257;61;1587;-88
2022/10/02 07:03:32;682262.00;2.27;1176.49;49948.00;0.17;87.10;;;;;19.70;1.00;;;;;;2280170;61;1333;-88
2022/10/02 07:06:24;621812.00;2.07;1071.90;0.00;0.00;0.62;;;;;19.80;1.00;;;;;;2280378;61;1982;-85
2022/10/02 07:09:21;393946.00;1.31;679.40;0.00;0.00;0.62;;;;;19.80;1.00;;;;;;2279711;61;1252;-87
2022/10/02 07:11:59;584675.00;1.95;1007.77;18541.00;0.06;32.74;;;;;19.70;1.00;;;;;;2279505;61;1043;-88
2022/10/02 07:14:42;746169.00;2.49;1287.40;62041.00;0.21;108.00;;;;;19.60;1.00;;;;;;2280171;61;1629;-88
2022/10/02 07:17:22;703121.00;2.34;1212.65;39309.00;0.13;68.69;;;;;19.60;1.00;;;;;;2280309;61;1561;-88
2022/10/02 07:20:22;600856.00;2.00;1035.70;0.00;0.00;0.62;;;;;19.50;1.00;;;;;;2280399;61;915;-87
2022/10/02 07:23:16;770091.00;2.57;1329.01;70911.00;0.24;123.33;;;;;19.40;1.00;;;;;;2280323;61;1466;-87
2022/10/02 07:25:57;700224.00;2.33;1207.63;0.00;0.00;0.62;;;;;19.30;1.00;;;;;;2280250;61;1996;-88
2022/10/02 07:28:32;590988.00;1.97;1018.66;0.00;0.00;0.62;;;;;19.40;1.00;;;;;;2280531;61;1050;-89
2022/10/02 07:31:08;572685.00;1.91;987.08;0.00;0.00;0.62;;;;;19.50;1.00;;;;;;2280978;61;1477;-88
2022/10/02 07:33:51;530892.00;1.77;915.03;0.00;0.00;0.62;;;;;19.60;1.00;;;;;;2280805;61;1432;-86
2022/10/02 07:36:30;445780.00;1.49;768.52;0.00;0.00;0.62;;;;;19.70;1.00;;;;;;2281061;61;1039;-87
2022/10/02 07:39:07;389846.00;1.30;672.35;0.00;0.00;0.62;;;;;19.80;1.00;;;;;;2281040;61;1454;-87
2022/10/02 07:42:08;399671.00;1.33;689.24;0.00;0.00;0.62;;;;;19.90;1.00;;;;;;2280964;61;1126;-87
2022/10/02 07:44:56;813617.00;2.71;1404.88;35505.00;0.12;62.11;;;;;20.00;1.00;;;;;;2280855;61;1375;-87
2022/10/02 07:47:43;683275.00;2.28;1178.25;0.00;0.00;0.62;;;;;20.00;1.00;;;;;;2281047;61;979;-88
2022/10/02 07:50:13;524337.00;1.75;903.74;694.00;0.00;1.82;;;;;20.00;1.00;;;;;;2280900;61;1050;-85
2022/10/02 07:52:51;797141.00;2.66;1376.14;80153.00;0.27;139.30;;;;;20.40;1.00;;;;;;2280825;61;1419;-88
2022/10/02 07:55:21;570676.00;1.90;983.61;0.00;0.00;0.62;;;;;20.20;1.00;;;;;;2280813;61;1706;-86
2022/10/02 07:57:59;526329.00;1.75;907.17;0.00;0.00;0.62;;;;;20.30;1.00;;;;;;2289517;39;3768;-88
2022/10/02 08:00:30;527855.00;1.76;909.80;0.00;0.00;0.62;;;;;20.30;1.00;;;;;;2280905;61;1015;-86
2022/10/02 08:03:02;313872.00;1.05;541.77;0.00;0.00;0.62;;;;;20.80;1.00;;;;;;2280856;61;1606;-87
2022/10/02 08:05:33;422859.00;1.41;729.11;0.00;0.00;0.62;;;;;21.30;1.00;;;;;;2284913;60;1935;-87
2022/10/02 08:08:06;564629.00;1.88;973.18;0.00;0.00;0.62;;;;;21.50;1.00;;;;;;2284933;60;1110;-89
2022/10/02 08:10:39;279488.00;0.93;482.66;0.00;0.00;0.62;;;;;21.80;1.00;;;;;;2285041;60;1470;-87
2022/10/02 08:13:15;402491.00;1.34;694.09;0.00;0.00;0.62;;;;;21.80;1.00;;;;;;2284897;60;1459;-88
2022/10/02 08:15:46;287901.00;0.96;497.12;0.00;0.00;0.62;;;;;22.00;1.00;;;;;;2285005;60;1214;-89
2022/10/02 08:18:21;587228.00;1.96;1012.17;0.00;0.00;0.62;;;;;22.00;1.00;;;;;;2284990;60;1016;-89
2022/10/02 08:20:50;486025.00;1.62;837.77;0.00;0.00;0.62;;;;;21.90;1.00;;;;;;2284912;60;1553;-87
2022/10/02 08:23:24;517685.00;1.73;892.28;0.00;0.00;0.62;;;;;21.70;1.00;;;;;;2284924;60;1474;-86
2022/10/02 08:26:00;554106.00;1.85;955.04;0.00;0.00;0.62;;;;;21.60;1.00;;;;;;2284806;60;2007;-88
2022/10/02 08:28:35;453797.00;1.51;782.31;0.00;0.00;0.62;;;;;21.30;1.00;;;;;;2284884;60;1053;-87
2022/10/02 08:31:09;388465.00;1.29;669.98;0.00;0.00;0.62;;;;;21.20;1.00;;;;;;2284984;60;1041;-88
2022/10/02 08:36:30;793836.00;2.65;1370.38;0.00;0.00;0.62;;;;;21.30;1.00;;;;;;2278462;61;1422;-87
2022/10/02 08:39:14;306606.00;1.02;529.28;0.00;0.00;0.62;;;;;21.40;1.00;;;;;;2276766;61;1177;-86
2022/10/02 08:42:25;612510.00;2.04;1055.83;30252.00;0.10;53.02;;;;;21.50;1.00;;;;;;2276685;61;1565;-86
2022/10/02 08:45:34;528740.00;1.76;911.32;0.00;0.00;0.62;;;;;21.70;1.00;;;;;;2272697;61;1011;-88
2022/10/02 08:48:42;345227.00;1.15;595.66;0.00;0.00;0.62;;;;;22.00;1.00;;;;;;2272650;61;1049;-87
2022/10/02 08:51:43;361255.00;1.20;623.21;0.00;0.00;0.62;;;;;22.60;1.00;;;;;;2272626;61;1093;-90
2022/10/02 08:54:35;449400.00;1.50;774.75;19809.00;0.07;34.94;;;;;22.20;1.00;;;;;;2272523;61;1384;-90
2022/10/02 08:57:27;471021.00;1.57;811.95;0.00;0.00;0.62;;;;;22.30;1.00;;;;;;2272673;61;991;-88
2022/10/02 09:00:13;514763.00;1.72;887.24;0.00;0.00;0.62;;;;;22.10;1.00;;;;;;2272430;61;1641;-87
2022/10/02 09:03:17;493661.00;1.65;850.91;0.00;0.00;0.62;;;;;21.90;1.00;;;;;;2272401;61;1438;-89
2022/10/02 09:06:18;297572.00;0.99;513.75;0.00;0.00;0.62;;;;;21.90;1.00;;;;;;2272564;61;2002;-86
2022/10/02 09:09:31;304040.00;1.01;524.86;0.00;0.00;0.62;;;;;21.90;1.00;;;;;;2272581;61;1042;-89
2022/10/02 09:12:57;370986.00;1.24;639.93;0.00;0.00;0.62;;;;;22.00;1.00;;;;;;2301752;55;3753;-87
2022/10/02 09:15:40;1016515.00;3.39;1761.74;121541.00;0.41;210.74;;;;;21.40;1.00;;;;;;2298422;56;3776;-86
2022/10/02 09:25:40;924352.00;3.08;1598.93;0.00;0.00;0.62;;;;;21.10;1.00;;;;;;2290782;60;1991;-89
2022/10/02 09:28:53;595462.00;1.98;1026.39;123519.00;0.41;214.15;;;;;21.60;1.00;;;;;;2288721;60;1609;-87
2022/10/02 09:34:25;2427451.00;8.09;4542.15;126070.00;0.42;218.55;;;;;21.30;1.00;;;;;;2332759;55;3612;-88
2022/10/02 09:39:57;968825.00;3.23;1677.33;0.00;0.00;0.62;;;;;21.70;1.00;;;;;;2282124;61;1663;-86
2022/10/02 09:43:14;590001.00;1.97;1016.96;0.00;0.00;0.62;;;;;22.10;1.00;;;;;;2280541;61;1360;-89
2022/10/02 10:06:18;963810.00;3.21;1668.48;0.00;0.00;0.62;;;;;22.10;1.00;;;;;;2281739;61;1903;-88
2022/10/02 10:16:57;521734.00;1.74;899.25;0.00;0.00;0.62;;;;;22.40;1.00;;;;;;1440850;39;3220;-87
2022/10/02 10:19:59;564091.00;1.88;972.26;0.00;0.00;0.62;;;;;22.50;1.00;;;;;;2288684;60;1647;-86
2022/10/02 10:25:29;1639441.00;5.46;2908.36;62248.00;0.21;108.36;;;;;22.80;1.00;;;;;;2282968;61;1329;-89
2022/10/02 10:28:32;1277290.00;4.26;2230.60;124320.00;0.41;215.53;;;;;22.80;1.00;;;;;;2304139;56;3996;-88
2022/10/02 10:34:07;1208370.00;4.03;2105.36;0.00;0.00;0.62;;;;;23.00;1.00;;;;;;2291033;60;1308;-89
2022/10/02 10:40:25;176246.00;0.59;305.02;0.00;0.00;0.62;;;;;23.50;1.00;;;;;;2285751;60;1124;-86
2022/10/02 10:43:36;700216.00;2.33;1207.61;51309.00;0.17;89.45;;;;;23.50;1.00;;;;;;2292747;60;1438;-88
2022/10/02 10:46:24;871698.00;2.91;1506.47;56967.00;0.19;99.23;;;;;23.60;1.00;;;;;;2291560;60;1918;-88
2022/10/02 10:49:19;617219.00;2.06;1063.96;57922.00;0.19;100.88;;;;;23.40;1.00;;;;;;2300159;55;3756;-86
2022/10/02 10:51:53;785162.00;2.62;1355.26;131957.00;0.44;228.70;;;;;22.90;1.00;;;;;;2288553;60;1596;-87
2022/10/02 10:54:55;458067.00;1.53;789.66;0.00;0.00;0.62;;;;;22.80;1.00;;;;;;2288520;60;1513;-89
2022/10/02 10:57:35;946872.00;3.16;1638.60;60442.00;0.20;105.24;;;;;23.10;1.00;;;;;;2313350;56;3786;-89
2022/10/02 11:00:16;334274.00;1.11;576.83;0.00;0.00;0.62;;;;;23.10;1.00;;;;;;2292595;60;1757;-86
2022/10/02 11:03:19;454332.00;1.51;783.23;0.00;0.00;0.62;;;;;23.00;1.00;;;;;;2298911;39;3595;-87
2022/10/02 11:06:24;611343.00;2.04;1053.81;86609.00;0.29;150.45;;;;;22.60;1.00;;;;;;2289145;60;1922;-87
2022/10/02 11:09:35;555069.00;1.85;956.70;0.00;0.00;0.62;;;;;22.60;1.00;;;;;;2289256;60;1759;-87
2022/10/02 11:12:31;527292.00;1.76;908.83;0.00;0.00;0.62;;;;;23.10;1.00;;;;;;2289204;60;1652;-88
2022/10/02 11:15:24;429782.00;1.43;741.01;0.00;0.00;0.62;;;;;23.50;1.00;;;;;;2289238;60;2188;-88
2022/10/02 11:20:56;1280049.00;4.27;2235.64;50867.00;0.17;88.69;;;;;24.00;1.00;;;;;;2283625;61;1304;-91
2022/10/02 11:23:56;815489.00;2.72;1408.15;53552.00;0.18;93.33;;;;;24.00;1.00;;;;;;2278783;61;1287;-87
2022/10/02 11:29:17;1671808.00;5.57;2970.78;52920.00;0.18;92.24;;;;;24.00;1.00;;;;;;2287212;60;1422;-87
2022/10/02 11:32:08;787912.00;2.63;1360.05;60733.00;0.20;105.74;;;;;24.30;1.00;;;;;;2279273;60;1544;-88
2022/10/02 11:40:17;1310118.00;4.37;2290.63;0.00;0.00;0.62;;;;;24.30;1.00;;;;;;2287040;60;1405;-89
2022/10/02 11:48:17;855233.00;2.85;1477.63;0.00;0.00;0.62;;;;;24.00;1.00;;;;;;2298986;60;1911;-90